sensor_id;sensor_type;location;lat;lon;timestamp;P1;durP1;ratioP1;P2;durP2;ratioP2
4102;SDS011;2065;49.790;9.620;2022-10-30T00:00:59;15.13;;;9.07;;
4102;SDS011;2065;49.790;9.620;2022-10-30T00:03:26;102.63;;;13.07;;
4102;SDS011;2065;49.790;9.620;2022-10-30T00:05:53;55.33;;;11.53;;
4102;SDS011;2065;49.790;9.620;2022-10-30T00:08:20;79.70;;;11.17;;
4102;SDS011;2065;49.790;9.620;2022-10-30T00:10:49;45.50;;;11.10;;
4102;SDS011;2065;49.790;9.620;2022-10-30T00:13:17;30.03;;;11.63;;
4102;SDS011;2065;49.790;9.620;2022-10-30T00:15:47;60.50;;;13.10;;
4102;SDS011;2065;49.790;9.620;2022-10-30T00:18:16;105.70;;;14.70;;
4102;SDS011;2065;49.790;9.620;2022-10-30T00:20:43;76.13;;;13.57;;
4102;SDS011;2065;49.790;9.620;2022-10-30T00:23:10;50.57;;;13.13;;
4102;SDS011;2065;49.790;9.620;2022-10-30T00:25:37;78.37;;;14.47;;
4102;SDS011;2065;49.790;9.620;2022-10-30T00:28:05;55.90;;;13.57;;
4102;SDS011;2065;49.790;9.620;2022-10-30T00:30:33;40.53;;;12.77;;
4102;SDS011;2065;49.790;9.620;2022-10-30T00:33:01;43.47;;;12.03;;
4102;SDS011;2065;49.790;9.620;2022-10-30T00:35:29;103.83;;;14.50;;
4102;SDS011;2065;49.790;9.620;2022-10-30T00:37:56;31.53;;;11.50;;
4102;SDS011;2065;49.790;9.620;2022-10-30T00:40:24;51.53;;;12.47;;
4102;SDS011;2065;49.790;9.620;2022-10-30T00:42:53;101.43;;;13.90;;
4102;SDS011;2065;49.790;9.620;2022-10-30T00:45:20;43.77;;;13.50;;
4102;SDS011;2065;49.790;9.620;2022-10-30T00:47:49;57.70;;;12.00;;
4102;SDS011;2065;49.790;9.620;2022-10-30T00:50:21;58.60;;;12.00;;
4102;SDS011;2065;49.790;9.620;2022-10-30T00:52:51;42.17;;;11.67;;
4102;SDS011;2065;49.790;9.620;2022-10-30T00:55:23;54.70;;;12.67;;
4102;SDS011;2065;49.790;9.620;2022-10-30T00:57:56;59.27;;;13.40;;
4102;SDS011;2065;49.790;9.620;2022-10-30T01:00:24;19.37;;;11.73;;
4102;SDS011;2065;49.790;9.620;2022-10-30T01:02:54;22.37;;;10.30;;
4102;SDS011;2065;49.790;9.620;2022-10-30T01:05:24;14.33;;;10.90;;
4102;SDS011;2065;49.790;9.620;2022-10-30T01:07:54;21.47;;;9.20;;
4102;SDS011;2065;49.790;9.620;2022-10-30T01:10:21;14.00;;;10.07;;
4102;SDS011;2065;49.790;9.620;2022-10-30T01:12:48;14.80;;;8.00;;
4102;SDS011;2065;49.790;9.620;2022-10-30T01:15:18;13.20;;;7.70;;
4102;SDS011;2065;49.790;9.620;2022-10-30T01:17:54;8.60;;;7.77;;
4102;SDS011;2065;49.790;9.620;2022-10-30T01:20:34;35.77;;;9.87;;
4102;SDS011;2065;49.790;9.620;2022-10-30T01:23:29;16.70;;;7.87;;
4102;SDS011;2065;49.790;9.620;2022-10-30T01:26:06;23.97;;;8.80;;
4102;SDS011;2065;49.790;9.620;2022-10-30T01:28:49;22.67;;;8.47;;
4102;SDS011;2065;49.790;9.620;2022-10-30T01:31:32;26.47;;;8.60;;
4102;SDS011;2065;49.790;9.620;2022-10-30T01:34:11;27.20;;;8.77;;
4102;SDS011;2065;49.790;9.620;2022-10-30T01:36:47;32.00;;;9.33;;
4102;SDS011;2065;49.790;9.620;2022-10-30T01:39:20;40.87;;;8.60;;
4102;SDS011;2065;49.790;9.620;2022-10-30T01:41:49;17.47;;;8.13;;
4102;SDS011;2065;49.790;9.620;2022-10-30T01:44:17;19.13;;;8.33;;
4102;SDS011;2065;49.790;9.620;2022-10-30T01:46:59;36.00;;;9.57;;
4102;SDS011;2065;49.790;9.620;2022-10-30T01:52:41;27.20;;;8.93;;
4102;SDS011;2065;49.790;9.620;2022-10-30T01:55:17;42.60;;;10.00;;
4102;SDS011;2065;49.790;9.620;2022-10-30T01:57:54;24.23;;;8.80;;
4102;SDS011;2065;49.790;9.620;2022-10-30T02:00:27;10.33;;;8.07;;
4102;SDS011;2065;49.790;9.620;2022-10-30T02:02:54;10.17;;;7.93;;
4102;SDS011;2065;49.790;9.620;2022-10-30T02:05:24;35.03;;;9.83;;
4102;SDS011;2065;49.790;9.620;2022-10-30T02:07:56;30.80;;;7.73;;
4102;SDS011;2065;49.790;9.620;2022-10-30T02:10:25;11.47;;;8.90;;
4102;SDS011;2065;49.790;9.620;2022-10-30T02:12:52;28.43;;;7.97;;
4102;SDS011;2065;49.790;9.620;2022-10-30T02:15:22;18.87;;;9.17;;
4102;SDS011;2065;49.790;9.620;2022-10-30T02:17:49;16.43;;;9.43;;
4102;SDS011;2065;49.790;9.620;2022-10-30T02:20:18;10.03;;;8.00;;
4102;SDS011;2065;49.790;9.620;2022-10-30T02:22:46;13.73;;;8.10;;
4102;SDS011;2065;49.790;9.620;2022-10-30T02:25:13;15.20;;;8.83;;
4102;SDS011;2065;49.790;9.620;2022-10-30T02:27:41;10.13;;;7.90;;
4102;SDS011;2065;49.790;9.620;2022-10-30T02:30:10;12.40;;;8.03;;
4102;SDS011;2065;49.790;9.620;2022-10-30T02:32:37;10.40;;;7.20;;
4102;SDS011;2065;49.790;9.620;2022-10-30T02:35:05;13.60;;;6.83;;
4102;SDS011;2065;49.790;9.620;2022-10-30T02:37:33;11.10;;;7.53;;
4102;SDS011;2065;49.790;9.620;2022-10-30T02:40:00;9.63;;;7.40;;
4102;SDS011;2065;49.790;9.620;2022-10-30T02:42:28;13.43;;;8.40;;
4102;SDS011;2065;49.790;9.620;2022-10-30T02:44:56;36.97;;;9.40;;
4102;SDS011;2065;49.790;9.620;2022-10-30T02:47:23;8.93;;;7.80;;
4102;SDS011;2065;49.790;9.620;2022-10-30T02:49:50;33.57;;;7.77;;
4102;SDS011;2065;49.790;9.620;2022-10-30T02:52:18;24.27;;;7.60;;
4102;SDS011;2065;49.790;9.620;2022-10-30T02:54:47;16.87;;;8.47;;
4102;SDS011;2065;49.790;9.620;2022-10-30T02:57:14;13.70;;;8.10;;
4102;SDS011;2065;49.790;9.620;2022-10-30T02:59:42;38.43;;;8.73;;
4102;SDS011;2065;49.790;9.620;2022-10-30T03:02:09;16.13;;;7.30;;
4102;SDS011;2065;49.790;9.620;2022-10-30T03:04:36;22.90;;;9.07;;
4102;SDS011;2065;49.790;9.620;2022-10-30T03:07:03;39.03;;;9.10;;
4102;SDS011;2065;49.790;9.620;2022-10-30T03:09:30;46.10;;;10.70;;
4102;SDS011;2065;49.790;9.620;2022-10-30T03:11:59;13.13;;;7.80;;
4102;SDS011;2065;49.790;9.620;2022-10-30T03:14:26;32.73;;;8.73;;
4102;SDS011;2065;49.790;9.620;2022-10-30T03:16:53;53.90;;;11.00;;
4102;SDS011;2065;49.790;9.620;2022-10-30T03:19:20;23.47;;;9.00;;
4102;SDS011;2065;49.790;9.620;2022-10-30T03:21:47;25.73;;;8.07;;
4102;SDS011;2065;49.790;9.620;2022-10-30T03:24:14;28.07;;;7.20;;
4102;SDS011;2065;49.790;9.620;2022-10-30T03:26:43;21.93;;;7.10;;
4102;SDS011;2065;49.790;9.620;2022-10-30T03:29:11;24.47;;;8.37;;
4102;SDS011;2065;49.790;9.620;2022-10-30T03:31:38;39.20;;;8.63;;
4102;SDS011;2065;49.790;9.620;2022-10-30T03:34:32;13.50;;;8.17;;
4102;SDS011;2065;49.790;9.620;2022-10-30T03:37:03;27.70;;;8.80;;
4102;SDS011;2065;49.790;9.620;2022-10-30T03:39:30;39.90;;;9.33;;
4102;SDS011;2065;49.790;9.620;2022-10-30T03:41:57;33.63;;;8.03;;
4102;SDS011;2065;49.790;9.620;2022-10-30T03:44:25;51.03;;;9.87;;
4102;SDS011;2065;49.790;9.620;2022-10-30T03:46:54;54.57;;;9.40;;
4102;SDS011;2065;49.790;9.620;2022-10-30T03:49:26;33.13;;;11.00;;
4102;SDS011;2065;49.790;9.620;2022-10-30T03:51:54;80.80;;;10.83;;
4102;SDS011;2065;49.790;9.620;2022-10-30T03:54:23;93.20;;;13.70;;
4102;SDS011;2065;49.790;9.620;2022-10-30T03:56:50;16.10;;;8.20;;
4102;SDS011;2065;49.790;9.620;2022-10-30T03:59:18;27.23;;;9.17;;
4102;SDS011;2065;49.790;9.620;2022-10-30T04:02:13;27.93;;;9.80;;
4102;SDS011;2065;49.790;9.620;2022-10-30T04:04:40;27.97;;;10.70;;
4102;SDS011;2065;49.790;9.620;2022-10-30T04:07:07;46.37;;;10.37;;
4102;SDS011;2065;49.790;9.620;2022-10-30T04:09:34;33.50;;;9.63;;
4102;SDS011;2065;49.790;9.620;2022-10-30T04:12:01;42.93;;;10.20;;
4102;SDS011;2065;49.790;9.620;2022-10-30T04:14:28;56.60;;;10.60;;
4102;SDS011;2065;49.790;9.620;2022-10-30T04:16:56;15.20;;;8.70;;
4102;SDS011;2065;49.790;9.620;2022-10-30T04:19:24;23.37;;;9.07;;
4102;SDS011;2065;49.790;9.620;2022-10-30T04:21:51;19.57;;;8.40;;
4102;SDS011;2065;49.790;9.620;2022-10-30T04:24:18;42.07;;;10.07;;
4102;SDS011;2065;49.790;9.620;2022-10-30T04:26:50;27.00;;;10.20;;
4102;SDS011;2065;49.790;9.620;2022-10-30T04:29:17;22.60;;;10.00;;
4102;SDS011;2065;49.790;9.620;2022-10-30T04:31:44;44.00;;;9.50;;
4102;SDS011;2065;49.790;9.620;2022-10-30T04:34:12;48.87;;;9.43;;
4102;SDS011;2065;49.790;9.620;2022-10-30T04:36:40;29.43;;;11.30;;
4102;SDS011;2065;49.790;9.620;2022-10-30T04:39:08;34.93;;;8.97;;
4102;SDS011;2065;49.790;9.620;2022-10-30T04:41:36;41.60;;;9.50;;
4102;SDS011;2065;49.790;9.620;2022-10-30T04:44:11;32.60;;;10.40;;
4102;SDS011;2065;49.790;9.620;2022-10-30T04:46:38;36.03;;;9.20;;
4102;SDS011;2065;49.790;9.620;2022-10-30T04:49:08;34.17;;;8.90;;
4102;SDS011;2065;49.790;9.620;2022-10-30T04:51:35;21.10;;;8.47;;
4102;SDS011;2065;49.790;9.620;2022-10-30T04:54:05;21.13;;;10.07;;
4102;SDS011;2065;49.790;9.620;2022-10-30T04:56:33;17.83;;;8.70;;
4102;SDS011;2065;49.790;9.620;2022-10-30T04:59:00;28.67;;;10.70;;
4102;SDS011;2065;49.790;9.620;2022-10-30T05:01:29;43.73;;;9.20;;
4102;SDS011;2065;49.790;9.620;2022-10-30T05:03:56;20.13;;;8.30;;
4102;SDS011;2065;49.790;9.620;2022-10-30T05:06:25;41.43;;;10.60;;
4102;SDS011;2065;49.790;9.620;2022-10-30T05:08:55;78.20;;;10.40;;
4102;SDS011;2065;49.790;9.620;2022-10-30T05:11:42;27.40;;;9.30;;
4102;SDS011;2065;49.790;9.620;2022-10-30T05:14:10;19.43;;;8.83;;
4102;SDS011;2065;49.790;9.620;2022-10-30T05:16:37;56.23;;;8.77;;
4102;SDS011;2065;49.790;9.620;2022-10-30T05:19:05;33.47;;;8.53;;
4102;SDS011;2065;49.790;9.620;2022-10-30T05:21:33;24.83;;;9.10;;
4102;SDS011;2065;49.790;9.620;2022-10-30T05:24:00;45.33;;;8.17;;
4102;SDS011;2065;49.790;9.620;2022-10-30T05:26:34;25.67;;;8.23;;
4102;SDS011;2065;49.790;9.620;2022-10-30T05:29:02;19.23;;;10.17;;
4102;SDS011;2065;49.790;9.620;2022-10-30T05:31:29;19.10;;;8.50;;
4102;SDS011;2065;49.790;9.620;2022-10-30T05:34:15;18.53;;;9.30;;
4102;SDS011;2065;49.790;9.620;2022-10-30T05:36:44;19.50;;;8.70;;
4102;SDS011;2065;49.790;9.620;2022-10-30T05:39:12;17.60;;;7.73;;
4102;SDS011;2065;49.790;9.620;2022-10-30T05:41:43;17.00;;;7.73;;
4102;SDS011;2065;49.790;9.620;2022-10-30T05:44:11;32.03;;;8.97;;
4102;SDS011;2065;49.790;9.620;2022-10-30T05:46:41;17.50;;;7.43;;
4102;SDS011;2065;49.790;9.620;2022-10-30T05:49:20;17.60;;;8.40;;
4102;SDS011;2065;49.790;9.620;2022-10-30T05:51:47;13.40;;;8.37;;
4102;SDS011;2065;49.790;9.620;2022-10-30T05:54:15;23.13;;;8.07;;
4102;SDS011;2065;49.790;9.620;2022-10-30T05:56:56;31.10;;;8.77;;
4102;SDS011;2065;49.790;9.620;2022-10-30T05:59:24;14.20;;;8.57;;
4102;SDS011;2065;49.790;9.620;2022-10-30T06:01:51;11.60;;;7.03;;
4102;SDS011;2065;49.790;9.620;2022-10-30T06:04:18;16.23;;;7.93;;
4102;SDS011;2065;49.790;9.620;2022-10-30T06:06:46;16.60;;;7.30;;
4102;SDS011;2065;49.790;9.620;2022-10-30T06:09:13;15.60;;;8.10;;
4102;SDS011;2065;49.790;9.620;2022-10-30T06:11:52;8.13;;;7.30;;
4102;SDS011;2065;49.790;9.620;2022-10-30T06:14:30;13.13;;;7.60;;
4102;SDS011;2065;49.790;9.620;2022-10-30T06:16:57;12.63;;;7.17;;
4102;SDS011;2065;49.790;9.620;2022-10-30T06:19:42;17.30;;;7.33;;
4102;SDS011;2065;49.790;9.620;2022-10-30T06:22:22;10.23;;;7.23;;
4102;SDS011;2065;49.790;9.620;2022-10-30T06:25:07;19.90;;;7.77;;
4102;SDS011;2065;49.790;9.620;2022-10-30T06:27:49;22.23;;;9.33;;
4102;SDS011;2065;49.790;9.620;2022-10-30T06:30:17;13.97;;;8.07;;
4102;SDS011;2065;49.790;9.620;2022-10-30T06:32:45;11.63;;;6.90;;
4102;SDS011;2065;49.790;9.620;2022-10-30T06:35:12;26.23;;;8.17;;
4102;SDS011;2065;49.790;9.620;2022-10-30T06:37:43;18.83;;;8.77;;
4102;SDS011;2065;49.790;9.620;2022-10-30T06:40:11;28.47;;;7.93;;
4102;SDS011;2065;49.790;9.620;2022-10-30T06:43:03;25.23;;;8.73;;
4102;SDS011;2065;49.790;9.620;2022-10-30T06:45:36;12.03;;;7.70;;
4102;SDS011;2065;49.790;9.620;2022-10-30T06:48:03;49.60;;;9.70;;
4102;SDS011;2065;49.790;9.620;2022-10-30T06:50:36;28.00;;;8.33;;
4102;SDS011;2065;49.790;9.620;2022-10-30T06:53:03;19.73;;;8.27;;
4102;SDS011;2065;49.790;9.620;2022-10-30T06:55:30;31.07;;;9.70;;
4102;SDS011;2065;49.790;9.620;2022-10-30T06:58:17;16.80;;;8.43;;
4102;SDS011;2065;49.790;9.620;2022-10-30T07:01:06;22.13;;;8.40;;
4102;SDS011;2065;49.790;9.620;2022-10-30T07:03:55;39.67;;;11.27;;
4102;SDS011;2065;49.790;9.620;2022-10-30T07:06:22;29.10;;;9.07;;
4102;SDS011;2065;49.790;9.620;2022-10-30T07:08:49;39.43;;;9.27;;
4102;SDS011;2065;49.790;9.620;2022-10-30T07:11:16;29.70;;;9.70;;
4102;SDS011;2065;49.790;9.620;2022-10-30T07:14:02;38.83;;;15.20;;
4102;SDS011;2065;49.790;9.620;2022-10-30T07:16:35;141.50;;;49.80;;
4102;SDS011;2065;49.790;9.620;2022-10-30T07:19:02;35.73;;;15.33;;
4102;SDS011;2065;49.790;9.620;2022-10-30T07:21:29;14.43;;;9.20;;
4102;SDS011;2065;49.790;9.620;2022-10-30T07:23:57;49.00;;;9.80;;
4102;SDS011;2065;49.790;9.620;2022-10-30T07:26:28;29.63;;;8.93;;
4102;SDS011;2065;49.790;9.620;2022-10-30T07:29:02;19.47;;;8.10;;
4102;SDS011;2065;49.790;9.620;2022-10-30T07:31:41;55.33;;;11.03;;
4102;SDS011;2065;49.790;9.620;2022-10-30T07:34:30;33.20;;;9.43;;
4102;SDS011;2065;49.790;9.620;2022-10-30T07:37:16;24.40;;;8.60;;
4102;SDS011;2065;49.790;9.620;2022-10-30T07:40:03;33.60;;;9.40;;
4102;SDS011;2065;49.790;9.620;2022-10-30T07:42:54;20.53;;;11.37;;
4102;SDS011;2065;49.790;9.620;2022-10-30T07:45:36;49.30;;;10.93;;
4102;SDS011;2065;49.790;9.620;2022-10-30T07:48:29;14.10;;;7.33;;
4102;SDS011;2065;49.790;9.620;2022-10-30T07:51:04;26.77;;;10.17;;
4102;SDS011;2065;49.790;9.620;2022-10-30T07:53:32;55.73;;;9.53;;
4102;SDS011;2065;49.790;9.620;2022-10-30T07:55:59;40.50;;;10.20;;
4102;SDS011;2065;49.790;9.620;2022-10-30T07:58:52;48.13;;;10.17;;
4102;SDS011;2065;49.790;9.620;2022-10-30T08:01:52;51.80;;;10.57;;
4102;SDS011;2065;49.790;9.620;2022-10-30T08:04:43;57.27;;;9.40;;
4102;SDS011;2065;49.790;9.620;2022-10-30T08:07:30;22.53;;;7.37;;
4102;SDS011;2065;49.790;9.620;2022-10-30T08:09:58;14.13;;;8.23;;
4102;SDS011;2065;49.790;9.620;2022-10-30T08:12:25;89.97;;;39.97;;
4102;SDS011;2065;49.790;9.620;2022-10-30T08:14:53;39.67;;;12.27;;
4102;SDS011;2065;49.790;9.620;2022-10-30T08:17:20;20.47;;;11.30;;
4102;SDS011;2065;49.790;9.620;2022-10-30T08:19:49;83.47;;;15.47;;
4102;SDS011;2065;49.790;9.620;2022-10-30T08:22:16;16.23;;;9.33;;
4102;SDS011;2065;49.790;9.620;2022-10-30T08:24:50;24.70;;;18.20;;
4102;SDS011;2065;49.790;9.620;2022-10-30T08:27:17;70.33;;;31.23;;
4102;SDS011;2065;49.790;9.620;2022-10-30T08:29:44;59.87;;;21.20;;
4102;SDS011;2065;49.790;9.620;2022-10-30T08:32:12;28.10;;;12.60;;
4102;SDS011;2065;49.790;9.620;2022-10-30T08:35:07;26.47;;;12.40;;
4102;SDS011;2065;49.790;9.620;2022-10-30T08:37:36;23.50;;;11.80;;
4102;SDS011;2065;49.790;9.620;2022-10-30T08:40:03;51.30;;;13.80;;
4102;SDS011;2065;49.790;9.620;2022-10-30T08:42:50;25.73;;;10.50;;
4102;SDS011;2065;49.790;9.620;2022-10-30T08:45:17;16.27;;;10.50;;
4102;SDS011;2065;49.790;9.620;2022-10-30T08:48:00;21.97;;;9.40;;
4102;SDS011;2065;49.790;9.620;2022-10-30T08:50:35;15.87;;;9.77;;
4102;SDS011;2065;49.790;9.620;2022-10-30T08:53:04;17.73;;;10.77;;
4102;SDS011;2065;49.790;9.620;2022-10-30T08:55:33;24.70;;;9.50;;
4102;SDS011;2065;49.790;9.620;2022-10-30T08:58:02;12.70;;;8.70;;
4102;SDS011;2065;49.790;9.620;2022-10-30T09:00:29;23.83;;;10.50;;
4102;SDS011;2065;49.790;9.620;2022-10-30T09:03:17;16.40;;;10.40;;
4102;SDS011;2065;49.790;9.620;2022-10-30T09:06:12;16.43;;;9.73;;
4102;SDS011;2065;49.790;9.620;2022-10-30T09:09:08;17.20;;;10.20;;
4102;SDS011;2065;49.790;9.620;2022-10-30T09:11:41;18.07;;;12.27;;
4102;SDS011;2065;49.790;9.620;2022-10-30T09:14:08;44.67;;;22.40;;
4102;SDS011;2065;49.790;9.620;2022-10-30T09:16:35;32.13;;;19.70;;
4102;SDS011;2065;49.790;9.620;2022-10-30T09:19:02;24.40;;;13.30;;
4102;SDS011;2065;49.790;9.620;2022-10-30T09:21:31;16.47;;;11.90;;
4102;SDS011;2065;49.790;9.620;2022-10-30T09:23:59;46.37;;;20.87;;
4102;SDS011;2065;49.790;9.620;2022-10-30T09:26:35;20.97;;;13.37;;
4102;SDS011;2065;49.790;9.620;2022-10-30T09:29:11;21.77;;;15.13;;
4102;SDS011;2065;49.790;9.620;2022-10-30T09:31:57;19.37;;;12.10;;
4102;SDS011;2065;49.790;9.620;2022-10-30T09:34:28;27.50;;;16.70;;
4102;SDS011;2065;49.790;9.620;2022-10-30T09:37:04;26.57;;;13.50;;
4102;SDS011;2065;49.790;9.620;2022-10-30T09:39:35;20.23;;;11.63;;
4102;SDS011;2065;49.790;9.620;2022-10-30T09:42:14;21.50;;;14.20;;
4102;SDS011;2065;49.790;9.620;2022-10-30T09:48:26;24.67;;;14.83;;
4102;SDS011;2065;49.790;9.620;2022-10-30T09:51:16;23.13;;;12.73;;
4102;SDS011;2065;49.790;9.620;2022-10-30T09:54:00;23.20;;;12.50;;
4102;SDS011;2065;49.790;9.620;2022-10-30T09:56:42;24.97;;;16.60;;
4102;SDS011;2065;49.790;9.620;2022-10-30T09:59:15;32.43;;;13.80;;
4102;SDS011;2065;49.790;9.620;2022-10-30T10:01:55;25.23;;;14.70;;
4102;SDS011;2065;49.790;9.620;2022-10-30T10:04:32;32.37;;;12.10;;
4102;SDS011;2065;49.790;9.620;2022-10-30T10:07:13;38.27;;;20.40;;
4102;SDS011;2065;49.790;9.620;2022-10-30T10:10:08;31.13;;;16.60;;
4102;SDS011;2065;49.790;9.620;2022-10-30T10:12:53;21.97;;;15.03;;
4102;SDS011;2065;49.790;9.620;2022-10-30T10:15:24;25.47;;;16.10;;
4102;SDS011;2065;49.790;9.620;2022-10-30T10:18:00;31.03;;;19.03;;
4102;SDS011;2065;49.790;9.620;2022-10-30T10:20:31;30.30;;;17.30;;
4102;SDS011;2065;49.790;9.620;2022-10-30T10:23:03;27.03;;;17.43;;
4102;SDS011;2065;49.790;9.620;2022-10-30T10:25:41;35.10;;;23.03;;
4102;SDS011;2065;49.790;9.620;2022-10-30T10:28:19;25.37;;;15.60;;
4102;SDS011;2065;49.790;9.620;2022-10-30T10:31:13;33.97;;;14.87;;
4102;SDS011;2065;49.790;9.620;2022-10-30T10:33:53;24.43;;;14.80;;
4102;SDS011;2065;49.790;9.620;2022-10-30T10:36:33;27.73;;;15.93;;
4102;SDS011;2065;49.790;9.620;2022-10-30T10:39:18;32.27;;;15.93;;
4102;SDS011;2065;49.790;9.620;2022-10-30T10:42:00;26.73;;;17.63;;
4102;SDS011;2065;49.790;9.620;2022-10-30T10:44:45;30.67;;;15.73;;
4102;SDS011;2065;49.790;9.620;2022-10-30T10:47:27;28.50;;;16.37;;
4102;SDS011;2065;49.790;9.620;2022-10-30T10:50:20;28.90;;;18.13;;
4102;SDS011;2065;49.790;9.620;2022-10-30T10:52:51;32.57;;;18.53;;
4102;SDS011;2065;49.790;9.620;2022-10-30T10:55:23;47.83;;;27.73;;
4102;SDS011;2065;49.790;9.620;2022-10-30T10:57:58;32.43;;;20.40;;
4102;SDS011;2065;49.790;9.620;2022-10-30T11:00:32;25.57;;;16.27;;
4102;SDS011;2065;49.790;9.620;2022-10-30T11:03:01;35.27;;;18.87;;
4102;SDS011;2065;49.790;9.620;2022-10-30T11:05:32;25.07;;;16.80;;
4102;SDS011;2065;49.790;9.620;2022-10-30T11:08:05;40.70;;;18.93;;
4102;SDS011;2065;49.790;9.620;2022-10-30T11:10:39;32.50;;;18.20;;
4102;SDS011;2065;49.790;9.620;2022-10-30T11:13:08;32.30;;;20.00;;
4102;SDS011;2065;49.790;9.620;2022-10-30T11:15:39;40.80;;;21.93;;
4102;SDS011;2065;49.790;9.620;2022-10-30T11:18:15;46.43;;;26.00;;
4102;SDS011;2065;49.790;9.620;2022-10-30T11:20:43;37.63;;;19.60;;
4102;SDS011;2065;49.790;9.620;2022-10-30T11:23:30;45.10;;;22.50;;
4102;SDS011;2065;49.790;9.620;2022-10-30T11:25:58;50.93;;;25.33;;
4102;SDS011;2065;49.790;9.620;2022-10-30T11:28:33;54.03;;;29.47;;
4102;SDS011;2065;49.790;9.620;2022-10-30T11:31:20;43.70;;;23.53;;
4102;SDS011;2065;49.790;9.620;2022-10-30T11:33:49;39.70;;;22.80;;
4102;SDS011;2065;49.790;9.620;2022-10-30T11:36:17;43.00;;;22.17;;
4102;SDS011;2065;49.790;9.620;2022-10-30T11:38:47;42.77;;;22.07;;
4102;SDS011;2065;49.790;9.620;2022-10-30T11:41:14;37.17;;;19.97;;
4102;SDS011;2065;49.790;9.620;2022-10-30T11:43:43;38.10;;;21.57;;
4102;SDS011;2065;49.790;9.620;2022-10-30T11:46:15;41.00;;;24.47;;
4102;SDS011;2065;49.790;9.620;2022-10-30T11:48:48;40.63;;;20.23;;
4102;SDS011;2065;49.790;9.620;2022-10-30T11:51:29;33.83;;;20.90;;
4102;SDS011;2065;49.790;9.620;2022-10-30T11:53:59;42.27;;;21.27;;
4102;SDS011;2065;49.790;9.620;2022-10-30T11:56:27;38.20;;;22.40;;
4102;SDS011;2065;49.790;9.620;2022-10-30T11:58:57;38.80;;;22.60;;
4102;SDS011;2065;49.790;9.620;2022-10-30T12:01:26;37.83;;;21.83;;
4102;SDS011;2065;49.790;9.620;2022-10-30T12:03:55;41.70;;;22.90;;
4102;SDS011;2065;49.790;9.620;2022-10-30T12:06:37;43.63;;;25.20;;
4102;SDS011;2065;49.790;9.620;2022-10-30T12:09:09;36.43;;;22.40;;
4102;SDS011;2065;49.790;9.620;2022-10-30T12:11:39;34.60;;;21.83;;
4102;SDS011;2065;49.790;9.620;2022-10-30T12:14:14;36.83;;;21.20;;
4102;SDS011;2065;49.790;9.620;2022-10-30T12:16:44;38.50;;;21.77;;
4102;SDS011;2065;49.790;9.620;2022-10-30T12:19:13;33.80;;;21.40;;
4102;SDS011;2065;49.790;9.620;2022-10-30T12:21:43;31.17;;;20.33;;
4102;SDS011;2065;49.790;9.620;2022-10-30T12:24:15;33.97;;;20.30;;
4102;SDS011;2065;49.790;9.620;2022-10-30T12:26:45;35.47;;;23.30;;
4102;SDS011;2065;49.790;9.620;2022-10-30T12:29:16;29.10;;;18.67;;
4102;SDS011;2065;49.790;9.620;2022-10-30T12:31:48;33.00;;;22.13;;
4102;SDS011;2065;49.790;9.620;2022-10-30T12:34:26;28.07;;;19.70;;
4102;SDS011;2065;49.790;9.620;2022-10-30T12:37:05;30.53;;;20.63;;
4102;SDS011;2065;49.790;9.620;2022-10-30T12:39:44;35.57;;;21.87;;
4102;SDS011;2065;49.790;9.620;2022-10-30T12:42:18;35.63;;;20.20;;
4102;SDS011;2065;49.790;9.620;2022-10-30T12:44:49;46.60;;;30.23;;
4102;SDS011;2065;49.790;9.620;2022-10-30T12:47:22;31.57;;;19.10;;
4102;SDS011;2065;49.790;9.620;2022-10-30T12:49:56;34.07;;;20.67;;
4102;SDS011;2065;49.790;9.620;2022-10-30T12:52:27;32.60;;;19.30;;
4102;SDS011;2065;49.790;9.620;2022-10-30T12:55:01;31.13;;;20.90;;
4102;SDS011;2065;49.790;9.620;2022-10-30T12:57:34;28.47;;;20.40;;
4102;SDS011;2065;49.790;9.620;2022-10-30T13:00:09;30.77;;;21.20;;
4102;SDS011;2065;49.790;9.620;2022-10-30T13:02:41;33.00;;;18.93;;
4102;SDS011;2065;49.790;9.620;2022-10-30T13:05:19;27.23;;;16.80;;
4102;SDS011;2065;49.790;9.620;2022-10-30T13:07:57;33.23;;;19.37;;
4102;SDS011;2065;49.790;9.620;2022-10-30T13:10:30;26.53;;;19.20;;
4102;SDS011;2065;49.790;9.620;2022-10-30T13:13:02;21.87;;;16.77;;
4102;SDS011;2065;49.790;9.620;2022-10-30T13:15:36;22.77;;;15.77;;
4102;SDS011;2065;49.790;9.620;2022-10-30T13:18:11;24.37;;;16.37;;
4102;SDS011;2065;49.790;9.620;2022-10-30T13:20:43;19.57;;;15.03;;
4102;SDS011;2065;49.790;9.620;2022-10-30T13:23:18;20.73;;;13.73;;
4102;SDS011;2065;49.790;9.620;2022-10-30T13:25:52;22.40;;;15.20;;
4102;SDS011;2065;49.790;9.620;2022-10-30T13:28:27;19.20;;;14.50;;
4102;SDS011;2065;49.790;9.620;2022-10-30T13:31:03;21.50;;;16.27;;
4102;SDS011;2065;49.790;9.620;2022-10-30T13:33:36;21.40;;;17.67;;
4102;SDS011;2065;49.790;9.620;2022-10-30T13:36:09;21.23;;;13.93;;
4102;SDS011;2065;49.790;9.620;2022-10-30T13:38:42;31.60;;;28.43;;
4102;SDS011;2065;49.790;9.620;2022-10-30T13:41:16;35.17;;;24.43;;
4102;SDS011;2065;49.790;9.620;2022-10-30T13:43:55;35.30;;;26.73;;
4102;SDS011;2065;49.790;9.620;2022-10-30T13:46:45;20.90;;;14.60;;
4102;SDS011;2065;49.790;9.620;2022-10-30T13:49:24;20.67;;;15.67;;
4102;SDS011;2065;49.790;9.620;2022-10-30T13:52:04;19.27;;;15.13;;
4102;SDS011;2065;49.790;9.620;2022-10-30T13:54:38;20.80;;;14.60;;
4102;SDS011;2065;49.790;9.620;2022-10-30T13:57:11;28.90;;;17.20;;
4102;SDS011;2065;49.790;9.620;2022-10-30T13:59:46;28.87;;;18.23;;
4102;SDS011;2065;49.790;9.620;2022-10-30T14:02:24;29.40;;;17.93;;
4102;SDS011;2065;49.790;9.620;2022-10-30T14:05:01;18.03;;;12.97;;
4102;SDS011;2065;49.790;9.620;2022-10-30T14:07:40;21.20;;;14.47;;
4102;SDS011;2065;49.790;9.620;2022-10-30T14:10:14;17.33;;;13.37;;
4102;SDS011;2065;49.790;9.620;2022-10-30T14:12:49;25.37;;;13.77;;
4102;SDS011;2065;49.790;9.620;2022-10-30T14:15:18;25.30;;;15.53;;
4102;SDS011;2065;49.790;9.620;2022-10-30T14:20:51;20.33;;;14.00;;
4102;SDS011;2065;49.790;9.620;2022-10-30T14:23:19;25.90;;;17.30;;
4102;SDS011;2065;49.790;9.620;2022-10-30T14:28:46;19.13;;;13.30;;
4102;SDS011;2065;49.790;9.620;2022-10-30T14:31:16;15.57;;;11.80;;
4102;SDS011;2065;49.790;9.620;2022-10-30T14:33:47;19.30;;;12.73;;
4102;SDS011;2065;49.790;9.620;2022-10-30T14:36:19;16.70;;;11.37;;
4102;SDS011;2065;49.790;9.620;2022-10-30T14:38:52;16.10;;;12.37;;
4102;SDS011;2065;49.790;9.620;2022-10-30T14:41:36;17.40;;;13.10;;
4102;SDS011;2065;49.790;9.620;2022-10-30T14:47:27;16.83;;;10.97;;
4102;SDS011;2065;49.790;9.620;2022-10-30T14:50:09;18.87;;;12.40;;
4102;SDS011;2065;49.790;9.620;2022-10-30T14:52:45;19.07;;;12.00;;
4102;SDS011;2065;49.790;9.620;2022-10-30T14:55:27;17.77;;;12.07;;
4102;SDS011;2065;49.790;9.620;2022-10-30T14:58:14;18.40;;;11.90;;
4102;SDS011;2065;49.790;9.620;2022-10-30T15:00:44;14.90;;;11.70;;
4102;SDS011;2065;49.790;9.620;2022-10-30T15:03:23;15.03;;;11.47;;
4102;SDS011;2065;49.790;9.620;2022-10-30T15:06:11;15.17;;;10.73;;
4102;SDS011;2065;49.790;9.620;2022-10-30T15:08:49;16.63;;;12.10;;
4102;SDS011;2065;49.790;9.620;2022-10-30T15:11:30;19.40;;;11.77;;
4102;SDS011;2065;49.790;9.620;2022-10-30T15:14:06;19.10;;;11.87;;
4102;SDS011;2065;49.790;9.620;2022-10-30T15:16:38;16.50;;;11.43;;
4102;SDS011;2065;49.790;9.620;2022-10-30T15:19:07;15.37;;;10.80;;
4102;SDS011;2065;49.790;9.620;2022-10-30T15:21:40;13.63;;;10.60;;
4102;SDS011;2065;49.790;9.620;2022-10-30T15:24:10;16.47;;;11.47;;
4102;SDS011;2065;49.790;9.620;2022-10-30T15:26:41;15.00;;;11.73;;
4102;SDS011;2065;49.790;9.620;2022-10-30T15:29:15;14.60;;;10.63;;
4102;SDS011;2065;49.790;9.620;2022-10-30T15:31:44;15.07;;;10.50;;
4102;SDS011;2065;49.790;9.620;2022-10-30T15:34:24;17.00;;;11.30;;
4102;SDS011;2065;49.790;9.620;2022-10-30T15:36:53;21.73;;;11.40;;
4102;SDS011;2065;49.790;9.620;2022-10-30T15:39:20;20.97;;;12.40;;
4102;SDS011;2065;49.790;9.620;2022-10-30T15:41:49;16.73;;;12.70;;
4102;SDS011;2065;49.790;9.620;2022-10-30T15:44:20;18.23;;;12.23;;